sensor_id;sensor_type;location;lat;lon;timestamp;temperature;humidity
60860;DHT22;46694;54.382;9.708;2023-02-16T00:02:21;4.70;99.90
60860;DHT22;46694;54.382;9.708;2023-02-16T00:05:00;4.70;99.90
60860;DHT22;46694;54.382;9.708;2023-02-16T00:07:39;4.70;99.90
60860;DHT22;46694;54.382;9.708;2023-02-16T00:10:19;4.70;99.90
60860;DHT22;46694;54.382;9.708;2023-02-16T00:13:00;4.70;99.90
60860;DHT22;46694;54.382;9.708;2023-02-16T00:15:59;4.70;99.90
60860;DHT22;46694;54.382;9.708;2023-02-16T00:18:38;4.70;99.90
60860;DHT22;46694;54.382;9.708;2023-02-16T00:21:19;4.70;99.90
60860;DHT22;46694;54.382;9.708;2023-02-16T00:23:59;4.70;99.90
60860;DHT22;46694;54.382;9.708;2023-02-16T00:26:40;4.70;99.90
60860;DHT22;46694;54.382;9.708;2023-02-16T00:32:12;4.70;99.90
60860;DHT22;46694;54.382;9.708;2023-02-16T00:34:52;4.70;99.90
60860;DHT22;46694;54.382;9.708;2023-02-16T00:37:31;4.70;99.90
60860;DHT22;46694;54.382;9.708;2023-02-16T00:43:34;4.70;99.90
60860;DHT22;46694;54.382;9.708;2023-02-16T00:46:14;4.70;99.90
60860;DHT22;46694;54.382;9.708;2023-02-16T00:48:53;4.70;99.90
60860;DHT22;46694;54.382;9.708;2023-02-16T00:51:33;4.70;99.90
60860;DHT22;46694;54.382;9.708;2023-02-16T00:54:13;4.70;99.90
60860;DHT22;46694;54.382;9.708;2023-02-16T00:56:53;4.60;99.90
60860;DHT22;46694;54.382;9.708;2023-02-16T00:59:33;4.70;99.90
60860;DHT22;46694;54.382;9.708;2023-02-16T01:02:13;4.60;99.90
60860;DHT22;46694;54.382;9.708;2023-02-16T01:04:52;4.60;99.90
60860;DHT22;46694;54.382;9.708;2023-02-16T01:07:31;4.60;99.90
60860;DHT22;46694;54.382;9.708;2023-02-16T01:10:29;4.60;99.90
60860;DHT22;46694;54.382;9.708;2023-02-16T01:13:30;4.60;99.90
60860;DHT22;46694;54.382;9.708;2023-02-16T01:16:15;4.60;99.90
60860;DHT22;46694;54.382;9.708;2023-02-16T01:19:05;4.60;99.90
60860;DHT22;46694;54.382;9.708;2023-02-16T01:21:45;4.60;99.90
60860;DHT22;46694;54.382;9.708;2023-02-16T01:24:24;4.60;99.90
60860;DHT22;46694;54.382;9.708;2023-02-16T01:27:04;4.60;99.90
60860;DHT22;46694;54.382;9.708;2023-02-16T01:29:43;4.60;99.90
60860;DHT22;46694;54.382;9.708;2023-02-16T01:32:23;4.60;99.90
60860;DHT22;46694;54.382;9.708;2023-02-16T01:35:03;4.60;99.90
60860;DHT22;46694;54.382;9.708;2023-02-16T01:37:42;4.60;99.90
60860;DHT22;46694;54.382;9.708;2023-02-16T01:43:46;4.60;99.90
60860;DHT22;46694;54.382;9.708;2023-02-16T01:46:37;4.60;99.90
60860;DHT22;46694;54.382;9.708;2023-02-16T01:49:21;4.60;99.90
60860;DHT22;46694;54.382;9.708;2023-02-16T01:52:06;4.50;99.90
60860;DHT22;46694;54.382;9.708;2023-02-16T02:03:30;4.50;99.90
60860;DHT22;46694;54.382;9.708;2023-02-16T02:06:33;4.50;99.90
60860;DHT22;46694;54.382;9.708;2023-02-16T02:09:25;4.50;99.90
60860;DHT22;46694;54.382;9.708;2023-02-16T02:12:34;4.50;99.90
60860;DHT22;46694;54.382;9.708;2023-02-16T02:15:21;4.50;99.90
60860;DHT22;46694;54.382;9.708;2023-02-16T02:18:03;4.50;99.90
60860;DHT22;46694;54.382;9.708;2023-02-16T02:24:31;4.50;99.90
60860;DHT22;46694;54.382;9.708;2023-02-16T02:27:39;4.50;99.90
60860;DHT22;46694;54.382;9.708;2023-02-16T02:30:38;4.60;99.90
60860;DHT22;46694;54.382;9.708;2023-02-16T02:36:36;4.60;99.90
60860;DHT22;46694;54.382;9.708;2023-02-16T02:43:05;4.60;99.90
60860;DHT22;46694;54.382;9.708;2023-02-16T02:48:52;4.60;99.90
60860;DHT22;46694;54.382;9.708;2023-02-16T02:51:32;4.60;99.90
60860;DHT22;46694;54.382;9.708;2023-02-16T02:54:21;4.60;99.90
60860;DHT22;46694;54.382;9.708;2023-02-16T02:57:28;4.70;99.90
60860;DHT22;46694;54.382;9.708;2023-02-16T03:00:37;4.70;99.90
60860;DHT22;46694;54.382;9.708;2023-02-16T03:03:26;4.70;99.90
60860;DHT22;46694;54.382;9.708;2023-02-16T03:06:18;4.70;99.90
60860;DHT22;46694;54.382;9.708;2023-02-16T03:09:10;4.70;99.90
60860;DHT22;46694;54.382;9.708;2023-02-16T03:11:52;4.70;99.90
60860;DHT22;46694;54.382;9.708;2023-02-16T03:14:55;4.70;99.90
60860;DHT22;46694;54.382;9.708;2023-02-16T03:17:38;4.70;99.90
60860;DHT22;46694;54.382;9.708;2023-02-16T03:20:37;4.70;99.90
60860;DHT22;46694;54.382;9.708;2023-02-16T03:23:36;4.70;99.90
60860;DHT22;46694;54.382;9.708;2023-02-16T03:26:37;4.60;99.90
60860;DHT22;46694;54.382;9.708;2023-02-16T03:29:36;4.60;99.90
60860;DHT22;46694;54.382;9.708;2023-02-16T03:32:16;4.60;99.90
60860;DHT22;46694;54.382;9.708;2023-02-16T03:34:57;4.60;99.90
60860;DHT22;46694;54.382;9.708;2023-02-16T03:37:37;4.60;99.90
60860;DHT22;46694;54.382;9.708;2023-02-16T03:40:18;4.60;99.90
60860;DHT22;46694;54.382;9.708;2023-02-16T03:43:08;4.60;99.90
60860;DHT22;46694;54.382;9.708;2023-02-16T03:45:47;4.60;99.90
60860;DHT22;46694;54.382;9.708;2023-02-16T03:48:27;4.60;99.90
60860;DHT22;46694;54.382;9.708;2023-02-16T03:51:07;4.70;99.90
60860;DHT22;46694;54.382;9.708;2023-02-16T03:53:46;4.70;99.90
60860;DHT22;46694;54.382;9.708;2023-02-16T03:56:26;4.70;99.90
60860;DHT22;46694;54.382;9.708;2023-02-16T03:59:06;4.70;99.90
60860;DHT22;46694;54.382;9.708;2023-02-16T04:01:45;4.70;99.90
60860;DHT22;46694;54.382;9.708;2023-02-16T04:04:25;4.70;99.90
60860;DHT22;46694;54.382;9.708;2023-02-16T04:07:04;4.70;99.90
60860;DHT22;46694;54.382;9.708;2023-02-16T04:09:43;4.70;99.90
60860;DHT22;46694;54.382;9.708;2023-02-16T04:12:23;4.70;99.90
60860;DHT22;46694;54.382;9.708;2023-02-16T04:15:17;4.70;99.90
60860;DHT22;46694;54.382;9.708;2023-02-16T04:17:59;4.70;99.90
60860;DHT22;46694;54.382;9.708;2023-02-16T04:20:38;4.70;99.90
60860;DHT22;46694;54.382;9.708;2023-02-16T04:23:18;4.70;99.90
60860;DHT22;46694;54.382;9.708;2023-02-16T04:25:57;4.70;99.90
60860;DHT22;46694;54.382;9.708;2023-02-16T04:28:37;4.60;99.90
60860;DHT22;46694;54.382;9.708;2023-02-16T04:31:17;4.60;99.90
60860;DHT22;46694;54.382;9.708;2023-02-16T04:33:56;4.60;99.90
60860;DHT22;46694;54.382;9.708;2023-02-16T04:36:36;4.60;99.90
60860;DHT22;46694;54.382;9.708;2023-02-16T04:39:16;4.60;99.90
60860;DHT22;46694;54.382;9.708;2023-02-16T04:41:55;4.60;99.90
60860;DHT22;46694;54.382;9.708;2023-02-16T04:44:35;4.60;99.90
60860;DHT22;46694;54.382;9.708;2023-02-16T04:47:14;4.60;99.90
60860;DHT22;46694;54.382;9.708;2023-02-16T04:49:54;4.60;99.90
60860;DHT22;46694;54.382;9.708;2023-02-16T04:52:33;4.60;99.90
60860;DHT22;46694;54.382;9.708;2023-02-16T04:55:14;4.60;99.90
60860;DHT22;46694;54.382;9.708;2023-02-16T04:57:54;4.60;99.90
60860;DHT22;46694;54.382;9.708;2023-02-16T05:00:33;4.50;99.90
60860;DHT22;46694;54.382;9.708;2023-02-16T05:03:13;4.60;99.90
60860;DHT22;46694;54.382;9.708;2023-02-16T05:05:53;4.50;99.90
60860;DHT22;46694;54.382;9.708;2023-02-16T05:08:32;4.60;99.90
60860;DHT22;46694;54.382;9.708;2023-02-16T05:11:12;4.50;99.90
60860;DHT22;46694;54.382;9.708;2023-02-16T05:14:21;4.60;99.90
60860;DHT22;46694;54.382;9.708;2023-02-16T05:17:24;4.60;99.90
60860;DHT22;46694;54.382;9.708;2023-02-16T05:20:05;4.60;99.90
60860;DHT22;46694;54.382;9.708;2023-02-16T05:22:44;4.60;99.90
60860;DHT22;46694;54.382;9.708;2023-02-16T05:25:24;4.60;99.90
60860;DHT22;46694;54.382;9.708;2023-02-16T05:28:04;4.60;99.90
60860;DHT22;46694;54.382;9.708;2023-02-16T05:30:44;4.60;99.90
60860;DHT22;46694;54.382;9.708;2023-02-16T05:33:23;4.60;99.90
60860;DHT22;46694;54.382;9.708;2023-02-16T05:36:03;4.60;99.90
60860;DHT22;46694;54.382;9.708;2023-02-16T05:38:43;4.60;99.90
60860;DHT22;46694;54.382;9.708;2023-02-16T05:41:23;4.60;99.90
60860;DHT22;46694;54.382;9.708;2023-02-16T05:44:04;4.70;99.90
60860;DHT22;46694;54.382;9.708;2023-02-16T05:46:44;4.70;99.90
60860;DHT22;46694;54.382;9.708;2023-02-16T05:49:27;4.70;99.90
60860;DHT22;46694;54.382;9.708;2023-02-16T05:52:06;4.70;99.90
60860;DHT22;46694;54.382;9.708;2023-02-16T05:54:46;4.70;99.90
60860;DHT22;46694;54.382;9.708;2023-02-16T05:57:26;4.70;99.90
60860;DHT22;46694;54.382;9.708;2023-02-16T06:00:06;4.70;99.90
60860;DHT22;46694;54.382;9.708;2023-02-16T06:02:46;4.70;99.90
60860;DHT22;46694;54.382;9.708;2023-02-16T06:05:26;4.70;99.90
60860;DHT22;46694;54.382;9.708;2023-02-16T06:08:05;4.70;99.90
60860;DHT22;46694;54.382;9.708;2023-02-16T06:10:47;4.80;99.90
60860;DHT22;46694;54.382;9.708;2023-02-16T06:13:28;4.80;99.90
60860;DHT22;46694;54.382;9.708;2023-02-16T06:16:07;4.80;99.90
60860;DHT22;46694;54.382;9.708;2023-02-16T06:18:47;4.80;99.90
60860;DHT22;46694;54.382;9.708;2023-02-16T06:21:27;4.80;99.90
60860;DHT22;46694;54.382;9.708;2023-02-16T06:24:08;4.80;99.90
60860;DHT22;46694;54.382;9.708;2023-02-16T06:26:49;4.80;99.90
60860;DHT22;46694;54.382;9.708;2023-02-16T06:29:29;4.80;99.90
60860;DHT22;46694;54.382;9.708;2023-02-16T06:32:11;4.80;99.90
60860;DHT22;46694;54.382;9.708;2023-02-16T06:34:50;4.80;99.90
60860;DHT22;46694;54.382;9.708;2023-02-16T06:37:29;4.80;99.90
60860;DHT22;46694;54.382;9.708;2023-02-16T06:40:10;4.80;99.90
60860;DHT22;46694;54.382;9.708;2023-02-16T06:42:53;4.80;99.90
60860;DHT22;46694;54.382;9.708;2023-02-16T06:45:33;4.80;99.90
60860;DHT22;46694;54.382;9.708;2023-02-16T06:48:12;4.80;99.90
60860;DHT22;46694;54.382;9.708;2023-02-16T06:50:52;4.80;99.90
60860;DHT22;46694;54.382;9.708;2023-02-16T06:53:31;4.80;99.90
60860;DHT22;46694;54.382;9.708;2023-02-16T06:56:12;4.90;99.90
60860;DHT22;46694;54.382;9.708;2023-02-16T06:58:52;4.90;99.90
60860;DHT22;46694;54.382;9.708;2023-02-16T07:01:31;4.90;99.90
60860;DHT22;46694;54.382;9.708;2023-02-16T07:04:11;4.90;99.90
60860;DHT22;46694;54.382;9.708;2023-02-16T07:06:50;4.90;99.90
60860;DHT22;46694;54.382;9.708;2023-02-16T07:09:30;4.90;99.90
60860;DHT22;46694;54.382;9.708;2023-02-16T07:12:09;4.90;99.90
60860;DHT22;46694;54.382;9.708;2023-02-16T07:14:49;4.90;99.90
60860;DHT22;46694;54.382;9.708;2023-02-16T07:17:29;4.90;99.90
60860;DHT22;46694;54.382;9.708;2023-02-16T07:20:08;4.90;99.90
60860;DHT22;46694;54.382;9.708;2023-02-16T07:22:50;4.90;99.90
60860;DHT22;46694;54.382;9.708;2023-02-16T07:25:30;4.90;99.90
60860;DHT22;46694;54.382;9.708;2023-02-16T07:28:10;4.90;99.90
60860;DHT22;46694;54.382;9.708;2023-02-16T07:30:49;4.90;99.90
60860;DHT22;46694;54.382;9.708;2023-02-16T07:33:29;5.00;99.90
60860;DHT22;46694;54.382;9.708;2023-02-16T07:36:09;5.00;99.90
60860;DHT22;46694;54.382;9.708;2023-02-16T07:38:49;5.00;99.90
60860;DHT22;46694;54.382;9.708;2023-02-16T07:41:29;5.00;99.90
60860;DHT22;46694;54.382;9.708;2023-02-16T07:44:09;5.00;99.90
60860;DHT22;46694;54.382;9.708;2023-02-16T07:46:49;5.00;99.90
60860;DHT22;46694;54.382;9.708;2023-02-16T07:49:28;5.00;99.90
60860;DHT22;46694;54.382;9.708;2023-02-16T07:52:08;5.00;99.90
60860;DHT22;46694;54.382;9.708;2023-02-16T07:54:47;5.00;99.90
60860;DHT22;46694;54.382;9.708;2023-02-16T07:57:27;5.00;99.90
60860;DHT22;46694;54.382;9.708;2023-02-16T08:00:07;5.00;99.90
60860;DHT22;46694;54.382;9.708;2023-02-16T08:02:48;5.00;99.90
60860;DHT22;46694;54.382;9.708;2023-02-16T08:05:28;5.10;99.90
60860;DHT22;46694;54.382;9.708;2023-02-16T08:08:07;5.10;99.90
60860;DHT22;46694;54.382;9.708;2023-02-16T08:10:47;5.10;99.90
60860;DHT22;46694;54.382;9.708;2023-02-16T08:13:27;5.10;99.90
60860;DHT22;46694;54.382;9.708;2023-02-16T08:16:08;5.10;99.90
60860;DHT22;46694;54.382;9.708;2023-02-16T08:18:48;5.10;99.90
60860;DHT22;46694;54.382;9.708;2023-02-16T08:21:31;5.20;99.90
60860;DHT22;46694;54.382;9.708;2023-02-16T08:24:12;5.20;99.90
60860;DHT22;46694;54.382;9.708;2023-02-16T08:26:52;5.20;99.90
60860;DHT22;46694;54.382;9.708;2023-02-16T08:29:32;5.30;99.90
60860;DHT22;46694;54.382;9.708;2023-02-16T08:32:12;5.30;99.90
60860;DHT22;46694;54.382;9.708;2023-02-16T08:34:52;5.40;99.90
60860;DHT22;46694;54.382;9.708;2023-02-16T08:37:32;5.40;99.90
60860;DHT22;46694;54.382;9.708;2023-02-16T08:40:13;5.40;99.90
60860;DHT22;46694;54.382;9.708;2023-02-16T08:42:52;5.50;99.90
60860;DHT22;46694;54.382;9.708;2023-02-16T08:45:32;5.50;99.90
60860;DHT22;46694;54.382;9.708;2023-02-16T08:48:12;5.50;99.90
60860;DHT22;46694;54.382;9.708;2023-02-16T08:50:52;5.50;99.90
60860;DHT22;46694;54.382;9.708;2023-02-16T08:53:34;5.50;99.90
60860;DHT22;46694;54.382;9.708;2023-02-16T08:56:14;5.60;99.90
60860;DHT22;46694;54.382;9.708;2023-02-16T08:58:55;5.60;99.90
60860;DHT22;46694;54.382;9.708;2023-02-16T09:01:35;5.70;99.90
60860;DHT22;46694;54.382;9.708;2023-02-16T09:04:18;5.80;99.90
60860;DHT22;46694;54.382;9.708;2023-02-16T09:07:00;5.90;99.90
60860;DHT22;46694;54.382;9.708;2023-02-16T09:09:39;6.10;99.90
60860;DHT22;46694;54.382;9.708;2023-02-16T09:12:19;6.20;99.90
60860;DHT22;46694;54.382;9.708;2023-02-16T09:14:58;6.30;99.90
60860;DHT22;46694;54.382;9.708;2023-02-16T09:17:38;6.40;99.90
60860;DHT22;46694;54.382;9.708;2023-02-16T09:20:18;6.40;99.90
60860;DHT22;46694;54.382;9.708;2023-02-16T09:22:58;6.50;99.90
60860;DHT22;46694;54.382;9.708;2023-02-16T09:25:39;6.60;99.90
60860;DHT22;46694;54.382;9.708;2023-02-16T09:28:20;6.60;99.90
60860;DHT22;46694;54.382;9.708;2023-02-16T09:31:06;6.60;99.90
60860;DHT22;46694;54.382;9.708;2023-02-16T09:34:07;6.60;99.90
60860;DHT22;46694;54.382;9.708;2023-02-16T09:36:57;6.60;99.90
60860;DHT22;46694;54.382;9.708;2023-02-16T09:39:36;6.60;99.90
60860;DHT22;46694;54.382;9.708;2023-02-16T09:42:50;6.70;99.90
60860;DHT22;46694;54.382;9.708;2023-02-16T09:45:41;6.70;99.90
60860;DHT22;46694;54.382;9.708;2023-02-16T09:48:35;6.80;99.90
60860;DHT22;46694;54.382;9.708;2023-02-16T09:51:26;6.90;99.90
60860;DHT22;46694;54.382;9.708;2023-02-16T09:54:39;7.00;99.90
60860;DHT22;46694;54.382;9.708;2023-02-16T10:13:47;7.00;99.90
60860;DHT22;46694;54.382;9.708;2023-02-16T10:16:38;7.00;99.90
60860;DHT22;46694;54.382;9.708;2023-02-16T10:19:25;7.00;99.90
60860;DHT22;46694;54.382;9.708;2023-02-16T10:22:12;7.00;99.90
60860;DHT22;46694;54.382;9.708;2023-02-16T10:25:51;7.00;99.90
60860;DHT22;46694;54.382;9.708;2023-02-16T10:29:02;7.10;99.90
60860;DHT22;46694;54.382;9.708;2023-02-16T10:31:40;7.10;99.90
60860;DHT22;46694;54.382;9.708;2023-02-16T10:40:54;7.20;99.90
60860;DHT22;46694;54.382;9.708;2023-02-16T10:44:04;7.20;99.90
60860;DHT22;46694;54.382;9.708;2023-02-16T10:46:56;7.30;99.90
60860;DHT22;46694;54.382;9.708;2023-02-16T10:49:38;7.30;99.90
60860;DHT22;46694;54.382;9.708;2023-02-16T10:52:19;7.30;99.90
60860;DHT22;46694;54.382;9.708;2023-02-16T10:54:58;7.40;99.90
60860;DHT22;46694;54.382;9.708;2023-02-16T10:57:39;7.40;99.90
60860;DHT22;46694;54.382;9.708;2023-02-16T11:00:22;7.40;99.90
60860;DHT22;46694;54.382;9.708;2023-02-16T11:03:11;7.40;99.90
60860;DHT22;46694;54.382;9.708;2023-02-16T11:05:52;7.40;99.90
60860;DHT22;46694;54.382;9.708;2023-02-16T11:08:46;7.40;99.90
60860;DHT22;46694;54.382;9.708;2023-02-16T11:11:29;7.40;99.90
60860;DHT22;46694;54.382;9.708;2023-02-16T11:14:25;7.50;99.90
60860;DHT22;46694;54.382;9.708;2023-02-16T11:17:11;7.50;99.90
60860;DHT22;46694;54.382;9.708;2023-02-16T11:20:04;7.50;99.90
60860;DHT22;46694;54.382;9.708;2023-02-16T11:22:44;7.40;99.90
60860;DHT22;46694;54.382;9.708;2023-02-16T11:25:25;7.50;99.90
60860;DHT22;46694;54.382;9.708;2023-02-16T11:28:05;7.50;99.90
60860;DHT22;46694;54.382;9.708;2023-02-16T11:30:45;7.50;99.90
60860;DHT22;46694;54.382;9.708;2023-02-16T11:33:26;7.50;99.90
60860;DHT22;46694;54.382;9.708;2023-02-16T11:39:21;7.60;99.90
60860;DHT22;46694;54.382;9.708;2023-02-16T11:42:37;7.50;99.90
60860;DHT22;46694;54.382;9.708;2023-02-16T11:45:31;7.50;99.90
60860;DHT22;46694;54.382;9.708;2023-02-16T11:48:13;7.50;99.90
60860;DHT22;46694;54.382;9.708;2023-02-16T11:51:08;7.50;99.90
60860;DHT22;46694;54.382;9.708;2023-02-16T11:53:59;7.40;99.90
60860;DHT22;46694;54.382;9.708;2023-02-16T11:56:40;7.40;99.90
60860;DHT22;46694;54.382;9.708;2023-02-16T11:59:21;7.40;99.90
60860;DHT22;46694;54.382;9.708;2023-02-16T12:08:20;7.50;99.90
60860;DHT22;46694;54.382;9.708;2023-02-16T12:21:17;7.70;99.90
60860;DHT22;46694;54.382;9.708;2023-02-16T12:27:21;7.70;99.90
60860;DHT22;46694;54.382;9.708;2023-02-16T12:45:18;7.90;99.90
60860;DHT22;46694;54.382;9.708;2023-02-16T12:51:25;7.90;99.90
60860;DHT22;46694;54.382;9.708;2023-02-16T12:57:03;8.00;99.90
60860;DHT22;46694;54.382;9.708;2023-02-16T13:00:02;8.00;99.90
60860;DHT22;46694;54.382;9.708;2023-02-16T13:02:49;8.00;99.90
60860;DHT22;46694;54.382;9.708;2023-02-16T13:05:36;8.00;99.90
60860;DHT22;46694;54.382;9.708;2023-02-16T13:08:38;8.00;99.90
60860;DHT22;46694;54.382;9.708;2023-02-16T13:14:20;8.10;99.90
60860;DHT22;46694;54.382;9.708;2023-02-16T13:17:08;8.10;99.90
60860;DHT22;46694;54.382;9.708;2023-02-16T13:19:50;8.10;99.90
60860;DHT22;46694;54.382;9.708;2023-02-16T13:32:16;8.10;99.90
60860;DHT22;46694;54.382;9.708;2023-02-16T13:44:48;8.20;99.90
60860;DHT22;46694;54.382;9.708;2023-02-16T13:47:33;8.10;99.90
60860;DHT22;46694;54.382;9.708;2023-02-16T13:53:19;8.10;99.90
60860;DHT22;46694;54.382;9.708;2023-02-16T13:58:52;8.10;99.90
60860;DHT22;46694;54.382;9.708;2023-02-16T14:09:48;8.10;99.90
60860;DHT22;46694;54.382;9.708;2023-02-16T14:12:30;8.10;99.90
60860;DHT22;46694;54.382;9.708;2023-02-16T14:15:19;8.10;99.90
60860;DHT22;46694;54.382;9.708;2023-02-16T14:17:59;8.10;99.90
60860;DHT22;46694;54.382;9.708;2023-02-16T14:20:38;8.00;99.90
60860;DHT22;46694;54.382;9.708;2023-02-16T14:23:29;8.00;99.90
60860;DHT22;46694;54.382;9.708;2023-02-16T14:26:12;8.00;99.90
60860;DHT22;46694;54.382;9.708;2023-02-16T14:29:06;8.00;99.90
60860;DHT22;46694;54.382;9.708;2023-02-16T14:32:00;8.00;99.90
60860;DHT22;46694;54.382;9.708;2023-02-16T14:34:53;8.00;99.90
60860;DHT22;46694;54.382;9.708;2023-02-16T14:37:43;7.90;99.90
60860;DHT22;46694;54.382;9.708;2023-02-16T14:43:32;8.00;99.90
60860;DHT22;46694;54.382;9.708;2023-02-16T14:52:31;8.00;99.90
60860;DHT22;46694;54.382;9.708;2023-02-16T15:01:42;8.00;99.90
60860;DHT22;46694;54.382;9.708;2023-02-16T15:04:31;8.00;99.90
60860;DHT22;46694;54.382;9.708;2023-02-16T15:07:11;8.00;99.90
60860;DHT22;46694;54.382;9.708;2023-02-16T15:09:55;8.00;99.90
60860;DHT22;46694;54.382;9.708;2023-02-16T15:12:38;8.00;99.90
60860;DHT22;46694;54.382;9.708;2023-02-16T15:15:21;8.00;99.90
60860;DHT22;46694;54.382;9.708;2023-02-16T15:18:05;8.00;99.90
60860;DHT22;46694;54.382;9.708;2023-02-16T15:20:51;8.00;99.90
60860;DHT22;46694;54.382;9.708;2023-02-16T15:23:33;8.10;99.90
60860;DHT22;46694;54.382;9.708;2023-02-16T15:26:19;8.10;99.90
60860;DHT22;46694;54.382;9.708;2023-02-16T15:29:24;8.10;99.90
60860;DHT22;46694;54.382;9.708;2023-02-16T15:32:05;8.10;99.90
60860;DHT22;46694;54.382;9.708;2023-02-16T15:34:45;8.10;99.90
60860;DHT22;46694;54.382;9.708;2023-02-16T15:37:30;8.10;99.90
60860;DHT22;46694;54.382;9.708;2023-02-16T15:40:24;8.10;99.90
60860;DHT22;46694;54.382;9.708;2023-02-16T15:45:53;8.20;99.90
60860;DHT22;46694;54.382;9.708;2023-02-16T15:48:35;8.10;99.90
60860;DHT22;46694;54.382;9.708;2023-02-16T15:51:27;8.10;99.90
60860;DHT22;46694;54.382;9.708;2023-02-16T15:54:29;8.10;99.90
60860;DHT22;46694;54.382;9.708;2023-02-16T15:57:20;8.10;99.90
60860;DHT22;46694;54.382;9.708;2023-02-16T16:00:14;8.10;99.90
60860;DHT22;46694;54.382;9.708;2023-02-16T16:02:56;8.10;99.90
60860;DHT22;46694;54.382;9.708;2023-02-16T16:05:39;8.10;99.90
60860;DHT22;46694;54.382;9.708;2023-02-16T16:08:21;8.10;99.90
60860;DHT22;46694;54.382;9.708;2023-02-16T16:11:03;8.10;99.90
60860;DHT22;46694;54.382;9.708;2023-02-16T16:13:43;8.10;99.90
60860;DHT22;46694;54.382;9.708;2023-02-16T16:16:23;8.10;99.90
60860;DHT22;46694;54.382;9.708;2023-02-16T16:19:13;8.20;99.90
60860;DHT22;46694;54.382;9.708;2023-02-16T16:21:55;8.20;99.90
60860;DHT22;46694;54.382;9.708;2023-02-16T16:24:37;8.20;99.90
60860;DHT22;46694;54.382;9.708;2023-02-16T16:27:30;8.20;99.90
60860;DHT22;46694;54.382;9.708;2023-02-16T16:30:33;8.30;99.90
60860;DHT22;46694;54.382;9.708;2023-02-16T16:33:14;8.30;99.90
60860;DHT22;46694;54.382;9.708;2023-02-16T16:35:54;8.30;99.90
60860;DHT22;46694;54.382;9.708;2023-02-16T16:38:37;8.30;99.90
60860;DHT22;46694;54.382;9.708;2023-02-16T16:41:26;8.40;99.90
60860;DHT22;46694;54.382;9.708;2023-02-16T16:44:11;8.40;99.90
60860;DHT22;46694;54.382;9.708;2023-02-16T16:46:51;8.40;99.90
60860;DHT22;46694;54.382;9.708;2023-02-16T16:49:31;8.40;99.90
60860;DHT22;46694;54.382;9.708;2023-02-16T16:52:11;8.40;99.90
60860;DHT22;46694;54.382;9.708;2023-02-16T16:54:50;8.40;99.90
60860;DHT22;46694;54.382;9.708;2023-02-16T16:57:31;8.40;99.90
60860;DHT22;46694;54.382;9.708;2023-02-16T17:00:11;8.40;99.90
60860;DHT22;46694;54.382;9.708;2023-02-16T17:02:51;8.40;99.90
60860;DHT22;46694;54.382;9.708;2023-02-16T17:05:32;8.40;99.90
60860;DHT22;46694;54.382;9.708;2023-02-16T17:08:14;8.40;99.90
60860;DHT22;46694;54.382;9.708;2023-02-16T17:10:54;8.40;99.90
60860;DHT22;46694;54.382;9.708;2023-02-16T17:13:34;8.40;99.90
60860;DHT22;46694;54.382;9.708;2023-02-16T17:16:36;8.40;99.90
60860;DHT22;46694;54.382;9.708;2023-02-16T17:19:20;8.40;99.90
60860;DHT22;46694;54.382;9.708;2023-02-16T17:22:00;8.40;99.90
60860;DHT22;46694;54.382;9.708;2023-02-16T17:24:40;8.40;99.90
60860;DHT22;46694;54.382;9.708;2023-02-16T17:27:19;8.40;99.90
60860;DHT22;46694;54.382;9.708;2023-02-16T17:29:59;8.40;99.90
60860;DHT22;46694;54.382;9.708;2023-02-16T17:32:39;8.40;99.90
60860;DHT22;46694;54.382;9.708;2023-02-16T17:35:18;8.40;99.90
60860;DHT22;46694;54.382;9.708;2023-02-16T17:37:58;8.40;99.90
60860;DHT22;46694;54.382;9.708;2023-02-16T17:40:38;8.50;99.90
60860;DHT22;46694;54.382;9.708;2023-02-16T17:43:20;8.50;99.90
60860;DHT22;46694;54.382;9.708;2023-02-16T17:46:00;8.50;99.90
60860;DHT22;46694;54.382;9.708;2023-02-16T17:48:44;8.50;99.90
60860;DHT22;46694;54.382;9.708;2023-02-16T17:51:25;8.50;99.90
60860;DHT22;46694;54.382;9.708;2023-02-16T17:54:06;8.50;99.90
60860;DHT22;46694;54.382;9.708;2023-02-16T17:57:10;8.50;99.90
60860;DHT22;46694;54.382;9.708;2023-02-16T17:59:50;8.50;99.90
60860;DHT22;46694;54.382;9.708;2023-02-16T18:02:30;8.60;99.90
60860;DHT22;46694;54.382;9.708;2023-02-16T18:05:10;8.60;99.90
60860;DHT22;46694;54.382;9.708;2023-02-16T18:07:49;8.60;99.90
60860;DHT22;46694;54.382;9.708;2023-02-16T18:10:45;8.60;99.90
60860;DHT22;46694;54.382;9.708;2023-02-16T18:13:30;8.60;99.90
60860;DHT22;46694;54.382;9.708;2023-02-16T18:16:16;8.60;99.90
60860;DHT22;46694;54.382;9.708;2023-02-16T18:18:57;8.60;99.90
60860;DHT22;46694;54.382;9.708;2023-02-16T18:21:36;8.60;99.90
60860;DHT22;46694;54.382;9.708;2023-02-16T18:24:16;8.60;99.90
60860;DHT22;46694;54.382;9.708;2023-02-16T18:26:55;8.60;99.90
60860;DHT22;46694;54.382;9.708;2023-02-16T18:29:35;8.70;99.90
60860;DHT22;46694;54.382;9.708;2023-02-16T18:32:14;8.60;99.90
60860;DHT22;46694;54.382;9.708;2023-02-16T18:34:54;8.50;99.90
60860;DHT22;46694;54.382;9.708;2023-02-16T18:37:34;8.50;99.90
60860;DHT22;46694;54.382;9.708;2023-02-16T18:40:17;8.40;99.90
60860;DHT22;46694;54.382;9.708;2023-02-16T18:42:57;8.40;99.90
60860;DHT22;46694;54.382;9.708;2023-02-16T18:45:39;8.40;99.90
60860;DHT22;46694;54.382;9.708;2023-02-16T18:48:19;8.30;99.90
60860;DHT22;46694;54.382;9.708;2023-02-16T18:51:04;8.20;99.90
60860;DHT22;46694;54.382;9.708;2023-02-16T18:53:45;8.20;99.90
60860;DHT22;46694;54.382;9.708;2023-02-16T18:56:24;8.20;99.90
60860;DHT22;46694;54.382;9.708;2023-02-16T18:59:05;8.20;99.90
60860;DHT22;46694;54.382;9.708;2023-02-16T19:01:45;8.20;99.90
60860;DHT22;46694;54.382;9.708;2023-02-16T19:04:25;8.20;99.90
60860;DHT22;46694;54.382;9.708;2023-02-16T19:07:05;8.10;99.90
60860;DHT22;46694;54.382;9.708;2023-02-16T19:09:45;8.10;99.90
60860;DHT22;46694;54.382;9.708;2023-02-16T19:12:25;8.10;99.90
60860;DHT22;46694;54.382;9.708;2023-02-16T19:15:05;8.00;99.90
60860;DHT22;46694;54.382;9.708;2023-02-16T19:17:46;8.10;99.90
60860;DHT22;46694;54.382;9.708;2023-02-16T19:20:25;8.00;99.90
60860;DHT22;46694;54.382;9.708;2023-02-16T19:23:06;8.00;99.90
60860;DHT22;46694;54.382;9.708;2023-02-16T19:25:46;8.00;99.90
60860;DHT22;46694;54.382;9.708;2023-02-16T19:28:26;8.00;99.90
60860;DHT22;46694;54.382;9.708;2023-02-16T19:31:14;7.90;99.90
60860;DHT22;46694;54.382;9.708;2023-02-16T19:33:58;7.90;99.90
60860;DHT22;46694;54.382;9.708;2023-02-16T19:36:38;7.90;99.90
60860;DHT22;46694;54.382;9.708;2023-02-16T19:39:17;7.90;99.90
60860;DHT22;46694;54.382;9.708;2023-02-16T19:41:57;7.90;99.90
60860;DHT22;46694;54.382;9.708;2023-02-16T19:44:38;7.80;99.90
60860;DHT22;46694;54.382;9.708;2023-02-16T19:47:18;7.80;99.90
60860;DHT22;46694;54.382;9.708;2023-02-16T19:49:58;7.80;99.90
60860;DHT22;46694;54.382;9.708;2023-02-16T19:52:37;7.80;99.90
60860;DHT22;46694;54.382;9.708;2023-02-16T19:55:17;7.80;99.90
60860;DHT22;46694;54.382;9.708;2023-02-16T19:58:05;7.80;99.90
60860;DHT22;46694;54.382;9.708;2023-02-16T20:00:45;7.80;99.90
60860;DHT22;46694;54.382;9.708;2023-02-16T20:03:24;7.80;99.90
60860;DHT22;46694;54.382;9.708;2023-02-16T20:06:35;7.80;99.90